sensor_id;sensor_type;location;lat;lon;timestamp;P1;durP1;ratioP1;P2;durP2;ratioP2
35126;SDS011;21300;52.006;5.798;2024-03-23T00:53:42;20.65;;;7.78;;
35126;SDS011;21300;52.006;5.798;2024-03-23T00:56:08;24.70;;;9.13;;
35126;SDS011;21300;52.006;5.798;2024-03-23T00:58:34;21.17;;;8.65;;
35126;SDS011;21300;52.006;5.798;2024-03-23T01:01:00;14.68;;;7.53;;
35126;SDS011;21300;52.006;5.798;2024-03-23T01:03:25;30.02;;;8.68;;
35126;SDS011;21300;52.006;5.798;2024-03-23T01:05:51;25.83;;;9.40;;
35126;SDS011;21300;52.006;5.798;2024-03-23T01:08:19;23.90;;;8.45;;
35126;SDS011;21300;52.006;5.798;2024-03-23T01:10:53;31.55;;;9.52;;
35126;SDS011;21300;52.006;5.798;2024-03-23T01:13:22;29.02;;;9.05;;
35126;SDS011;21300;52.006;5.798;2024-03-23T01:15:52;26.35;;;9.55;;
35126;SDS011;21300;52.006;5.798;2024-03-23T01:18:19;24.50;;;9.73;;
35126;SDS011;21300;52.006;5.798;2024-03-23T01:20:45;21.02;;;9.48;;
35126;SDS011;21300;52.006;5.798;2024-03-23T01:23:11;28.02;;;8.50;;
35126;SDS011;21300;52.006;5.798;2024-03-23T01:25:37;28.50;;;10.27;;
35126;SDS011;21300;52.006;5.798;2024-03-23T01:28:03;19.13;;;8.52;;
35126;SDS011;21300;52.006;5.798;2024-03-23T01:30:31;24.90;;;9.85;;
35126;SDS011;21300;52.006;5.798;2024-03-23T01:32:57;25.48;;;10.23;;
35126;SDS011;21300;52.006;5.798;2024-03-23T01:35:22;23.65;;;10.10;;
35126;SDS011;21300;52.006;5.798;2024-03-23T01:37:48;24.02;;;10.13;;
35126;SDS011;21300;52.006;5.798;2024-03-23T01:40:15;24.42;;;10.23;;
35126;SDS011;21300;52.006;5.798;2024-03-23T01:42:41;21.35;;;10.63;;
35126;SDS011;21300;52.006;5.798;2024-03-23T01:45:07;23.73;;;9.77;;
35126;SDS011;21300;52.006;5.798;2024-03-23T01:47:34;21.65;;;9.90;;
35126;SDS011;21300;52.006;5.798;2024-03-23T01:50:00;26.52;;;9.65;;
35126;SDS011;21300;52.006;5.798;2024-03-23T01:52:26;21.25;;;9.65;;
35126;SDS011;21300;52.006;5.798;2024-03-23T01:54:52;26.88;;;10.13;;
35126;SDS011;21300;52.006;5.798;2024-03-23T01:57:19;22.42;;;9.63;;
35126;SDS011;21300;52.006;5.798;2024-03-23T01:59:48;24.42;;;10.68;;
35126;SDS011;21300;52.006;5.798;2024-03-23T02:02:14;23.70;;;10.07;;
35126;SDS011;21300;52.006;5.798;2024-03-23T02:04:39;25.23;;;9.68;;
35126;SDS011;21300;52.006;5.798;2024-03-23T02:07:08;29.55;;;9.82;;
35126;SDS011;21300;52.006;5.798;2024-03-23T02:09:37;19.88;;;9.32;;
35126;SDS011;21300;52.006;5.798;2024-03-23T02:12:03;30.98;;;10.57;;
35126;SDS011;21300;52.006;5.798;2024-03-23T02:14:29;22.77;;;10.50;;
35126;SDS011;21300;52.006;5.798;2024-03-23T02:16:55;24.80;;;10.27;;
35126;SDS011;21300;52.006;5.798;2024-03-23T02:19:20;25.02;;;10.70;;
35126;SDS011;21300;52.006;5.798;2024-03-23T02:21:46;29.17;;;10.18;;
35126;SDS011;21300;52.006;5.798;2024-03-23T02:24:13;20.08;;;10.18;;
35126;SDS011;21300;52.006;5.798;2024-03-23T02:26:39;29.42;;;10.77;;
35126;SDS011;21300;52.006;5.798;2024-03-23T02:29:04;26.75;;;10.05;;
35126;SDS011;21300;52.006;5.798;2024-03-23T02:31:30;27.35;;;10.10;;
35126;SDS011;21300;52.006;5.798;2024-03-23T02:33:55;28.80;;;11.20;;
35126;SDS011;21300;52.006;5.798;2024-03-23T02:36:21;26.48;;;11.18;;
35126;SDS011;21300;52.006;5.798;2024-03-23T02:38:47;25.73;;;11.00;;
35126;SDS011;21300;52.006;5.798;2024-03-23T02:41:12;22.65;;;10.48;;
35126;SDS011;21300;52.006;5.798;2024-03-23T02:43:38;25.75;;;10.15;;
35126;SDS011;21300;52.006;5.798;2024-03-23T02:46:04;23.25;;;9.85;;
35126;SDS011;21300;52.006;5.798;2024-03-23T02:48:30;25.30;;;10.88;;
35126;SDS011;21300;52.006;5.798;2024-03-23T02:50:56;22.40;;;9.90;;
35126;SDS011;21300;52.006;5.798;2024-03-23T02:53:21;27.73;;;10.10;;
35126;SDS011;21300;52.006;5.798;2024-03-23T02:55:47;21.60;;;9.50;;
35126;SDS011;21300;52.006;5.798;2024-03-23T02:58:12;25.52;;;9.82;;
35126;SDS011;21300;52.006;5.798;2024-03-23T03:00:38;25.50;;;10.45;;
35126;SDS011;21300;52.006;5.798;2024-03-23T03:03:04;25.73;;;9.48;;
35126;SDS011;21300;52.006;5.798;2024-03-23T03:05:29;29.83;;;10.60;;
35126;SDS011;21300;52.006;5.798;2024-03-23T03:07:55;24.50;;;10.90;;
35126;SDS011;21300;52.006;5.798;2024-03-23T03:10:21;27.45;;;11.10;;
35126;SDS011;21300;52.006;5.798;2024-03-23T03:12:46;28.02;;;11.55;;
35126;SDS011;21300;52.006;5.798;2024-03-23T03:15:12;31.48;;;11.63;;
35126;SDS011;21300;52.006;5.798;2024-03-23T03:17:39;28.95;;;10.80;;
35126;SDS011;21300;52.006;5.798;2024-03-23T03:20:05;29.38;;;11.68;;
35126;SDS011;21300;52.006;5.798;2024-03-23T03:22:31;28.90;;;10.57;;
35126;SDS011;21300;52.006;5.798;2024-03-23T03:24:57;27.90;;;11.30;;
35126;SDS011;21300;52.006;5.798;2024-03-23T03:27:22;25.02;;;12.13;;
35126;SDS011;21300;52.006;5.798;2024-03-23T03:29:48;25.98;;;11.07;;
35126;SDS011;21300;52.006;5.798;2024-03-23T03:32:14;24.70;;;11.25;;
35126;SDS011;21300;52.006;5.798;2024-03-23T03:34:39;25.10;;;10.63;;
35126;SDS011;21300;52.006;5.798;2024-03-23T03:37:05;29.85;;;11.70;;
35126;SDS011;21300;52.006;5.798;2024-03-23T03:39:30;26.25;;;10.65;;
35126;SDS011;21300;52.006;5.798;2024-03-23T03:41:56;26.42;;;10.70;;
35126;SDS011;21300;52.006;5.798;2024-03-23T03:44:22;26.90;;;10.55;;
35126;SDS011;21300;52.006;5.798;2024-03-23T03:46:47;21.48;;;10.50;;
35126;SDS011;21300;52.006;5.798;2024-03-23T03:49:13;27.98;;;10.63;;
35126;SDS011;21300;52.006;5.798;2024-03-23T03:51:38;22.75;;;10.93;;
35126;SDS011;21300;52.006;5.798;2024-03-23T03:54:04;29.35;;;10.57;;
35126;SDS011;21300;52.006;5.798;2024-03-23T03:56:30;25.00;;;10.18;;
35126;SDS011;21300;52.006;5.798;2024-03-23T03:58:55;26.55;;;11.27;;
35126;SDS011;21300;52.006;5.798;2024-03-23T04:01:21;29.35;;;10.80;;
35126;SDS011;21300;52.006;5.798;2024-03-23T04:03:47;32.55;;;10.02;;
35126;SDS011;21300;52.006;5.798;2024-03-23T04:06:18;25.25;;;9.63;;
35126;SDS011;21300;52.006;5.798;2024-03-23T04:08:44;24.70;;;10.50;;
35126;SDS011;21300;52.006;5.798;2024-03-23T04:11:09;38.33;;;10.27;;
35126;SDS011;21300;52.006;5.798;2024-03-23T04:13:35;16.55;;;8.95;;
35126;SDS011;21300;52.006;5.798;2024-03-23T04:16:01;22.17;;;8.63;;
35126;SDS011;21300;52.006;5.798;2024-03-23T04:18:27;24.02;;;9.48;;
35126;SDS011;21300;52.006;5.798;2024-03-23T04:20:52;26.10;;;9.43;;
35126;SDS011;21300;52.006;5.798;2024-03-23T04:23:18;20.88;;;8.60;;
35126;SDS011;21300;52.006;5.798;2024-03-23T04:25:44;27.08;;;9.02;;
35126;SDS011;21300;52.006;5.798;2024-03-23T04:28:09;16.45;;;8.57;;
35126;SDS011;21300;52.006;5.798;2024-03-23T04:30:35;19.25;;;8.57;;
35126;SDS011;21300;52.006;5.798;2024-03-23T04:33:02;21.08;;;8.10;;
35126;SDS011;21300;52.006;5.798;2024-03-23T04:35:27;18.85;;;8.02;;
35126;SDS011;21300;52.006;5.798;2024-03-23T04:37:53;18.50;;;7.80;;
35126;SDS011;21300;52.006;5.798;2024-03-23T04:40:20;18.73;;;7.18;;
35126;SDS011;21300;52.006;5.798;2024-03-23T04:42:46;13.35;;;7.13;;
35126;SDS011;21300;52.006;5.798;2024-03-23T04:45:12;22.95;;;8.20;;
35126;SDS011;21300;52.006;5.798;2024-03-23T04:47:38;20.65;;;8.02;;
35126;SDS011;21300;52.006;5.798;2024-03-23T04:50:04;21.75;;;7.20;;
35126;SDS011;21300;52.006;5.798;2024-03-23T04:52:30;16.52;;;6.72;;
35126;SDS011;21300;52.006;5.798;2024-03-23T04:54:56;17.70;;;7.25;;
35126;SDS011;21300;52.006;5.798;2024-03-23T04:57:22;15.25;;;7.13;;
35126;SDS011;21300;52.006;5.798;2024-03-23T04:59:49;21.42;;;6.95;;
35126;SDS011;21300;52.006;5.798;2024-03-23T05:02:15;15.70;;;6.60;;
35126;SDS011;21300;52.006;5.798;2024-03-23T05:04:41;19.25;;;5.70;;
35126;SDS011;21300;52.006;5.798;2024-03-23T05:07:07;18.92;;;6.22;;
35126;SDS011;21300;52.006;5.798;2024-03-23T05:09:33;17.50;;;6.00;;
35126;SDS011;21300;52.006;5.798;2024-03-23T05:12:01;15.93;;;5.18;;
35126;SDS011;21300;52.006;5.798;2024-03-23T05:14:27;12.43;;;4.35;;
35126;SDS011;21300;52.006;5.798;2024-03-23T05:16:53;19.00;;;5.63;;
35126;SDS011;21300;52.006;5.798;2024-03-23T05:19:19;15.05;;;4.75;;
35126;SDS011;21300;52.006;5.798;2024-03-23T05:21:45;10.45;;;4.15;;
35126;SDS011;21300;52.006;5.798;2024-03-23T05:24:11;11.15;;;3.53;;
35126;SDS011;21300;52.006;5.798;2024-03-23T05:26:37;16.55;;;4.05;;
35126;SDS011;21300;52.006;5.798;2024-03-23T05:29:03;19.20;;;4.15;;
35126;SDS011;21300;52.006;5.798;2024-03-23T05:31:29;12.80;;;4.70;;
35126;SDS011;21300;52.006;5.798;2024-03-23T05:33:56;13.55;;;4.38;;
35126;SDS011;21300;52.006;5.798;2024-03-23T05:36:22;15.35;;;4.30;;
35126;SDS011;21300;52.006;5.798;2024-03-23T05:38:49;15.38;;;3.83;;
35126;SDS011;21300;52.006;5.798;2024-03-23T05:41:15;10.93;;;3.83;;
35126;SDS011;21300;52.006;5.798;2024-03-23T05:43:40;13.23;;;3.83;;
35126;SDS011;21300;52.006;5.798;2024-03-23T05:46:06;16.30;;;4.22;;
35126;SDS011;21300;52.006;5.798;2024-03-23T05:48:32;13.23;;;4.07;;
35126;SDS011;21300;52.006;5.798;2024-03-23T05:50:58;12.65;;;3.75;;
35126;SDS011;21300;52.006;5.798;2024-03-23T05:53:24;8.85;;;3.22;;
35126;SDS011;21300;52.006;5.798;2024-03-23T05:55:59;9.50;;;4.22;;
35126;SDS011;21300;52.006;5.798;2024-03-23T05:58:28;13.63;;;3.30;;
35126;SDS011;21300;52.006;5.798;2024-03-23T06:00:58;11.10;;;3.22;;
35126;SDS011;21300;52.006;5.798;2024-03-23T06:03:25;12.98;;;3.40;;
35126;SDS011;21300;52.006;5.798;2024-03-23T06:05:51;9.85;;;2.92;;
35126;SDS011;21300;52.006;5.798;2024-03-23T06:08:21;15.63;;;3.92;;
35126;SDS011;21300;52.006;5.798;2024-03-23T06:10:47;14.82;;;3.30;;
35126;SDS011;21300;52.006;5.798;2024-03-23T06:13:13;12.73;;;3.10;;
35126;SDS011;21300;52.006;5.798;2024-03-23T06:15:39;15.90;;;2.97;;
35126;SDS011;21300;52.006;5.798;2024-03-23T06:18:05;12.25;;;3.25;;
35126;SDS011;21300;52.006;5.798;2024-03-23T06:20:32;11.05;;;2.78;;
35126;SDS011;21300;52.006;5.798;2024-03-23T06:22:58;5.68;;;2.88;;
35126;SDS011;21300;52.006;5.798;2024-03-23T06:25:24;12.02;;;3.10;;
35126;SDS011;21300;52.006;5.798;2024-03-23T06:27:49;9.70;;;3.17;;
35126;SDS011;21300;52.006;5.798;2024-03-23T06:30:15;7.55;;;2.60;;
35126;SDS011;21300;52.006;5.798;2024-03-23T06:32:41;17.77;;;3.38;;
35126;SDS011;21300;52.006;5.798;2024-03-23T06:35:07;11.35;;;2.78;;
35126;SDS011;21300;52.006;5.798;2024-03-23T06:37:35;6.20;;;2.08;;
35126;SDS011;21300;52.006;5.798;2024-03-23T06:40:01;10.57;;;3.22;;
35126;SDS011;21300;52.006;5.798;2024-03-23T06:42:28;10.75;;;2.90;;
35126;SDS011;21300;52.006;5.798;2024-03-23T06:44:53;9.43;;;2.20;;
35126;SDS011;21300;52.006;5.798;2024-03-23T06:47:19;11.50;;;2.58;;
35126;SDS011;21300;52.006;5.798;2024-03-23T06:49:45;11.43;;;2.50;;
35126;SDS011;21300;52.006;5.798;2024-03-23T06:52:11;9.90;;;2.30;;
35126;SDS011;21300;52.006;5.798;2024-03-23T06:54:36;6.60;;;2.42;;
35126;SDS011;21300;52.006;5.798;2024-03-23T06:57:02;15.40;;;2.65;;
35126;SDS011;21300;52.006;5.798;2024-03-23T06:59:28;13.30;;;2.25;;
35126;SDS011;21300;52.006;5.798;2024-03-23T07:01:53;11.57;;;2.22;;
35126;SDS011;21300;52.006;5.798;2024-03-23T07:04:19;13.35;;;2.78;;
35126;SDS011;21300;52.006;5.798;2024-03-23T07:06:45;15.90;;;2.80;;
35126;SDS011;21300;52.006;5.798;2024-03-23T07:09:11;10.77;;;2.95;;
35126;SDS011;21300;52.006;5.798;2024-03-23T07:11:37;13.45;;;2.13;;
35126;SDS011;21300;52.006;5.798;2024-03-23T07:14:03;7.88;;;2.30;;
35126;SDS011;21300;52.006;5.798;2024-03-23T07:16:29;9.10;;;3.60;;
35126;SDS011;21300;52.006;5.798;2024-03-23T07:18:55;10.15;;;2.13;;
35126;SDS011;21300;52.006;5.798;2024-03-23T07:21:21;12.35;;;2.67;;
35126;SDS011;21300;52.006;5.798;2024-03-23T07:23:47;11.02;;;2.92;;
35126;SDS011;21300;52.006;5.798;2024-03-23T07:26:13;11.57;;;2.38;;
35126;SDS011;21300;52.006;5.798;2024-03-23T07:28:38;12.55;;;2.90;;
35126;SDS011;21300;52.006;5.798;2024-03-23T07:31:09;9.57;;;3.13;;
35126;SDS011;21300;52.006;5.798;2024-03-23T07:33:36;9.77;;;3.00;;
35126;SDS011;21300;52.006;5.798;2024-03-23T07:36:06;12.55;;;3.08;;
35126;SDS011;21300;52.006;5.798;2024-03-23T07:38:32;11.18;;;3.40;;
35126;SDS011;21300;52.006;5.798;2024-03-23T07:41:08;11.13;;;3.28;;
35126;SDS011;21300;52.006;5.798;2024-03-23T07:43:36;12.20;;;3.17;;
35126;SDS011;21300;52.006;5.798;2024-03-23T07:46:05;12.35;;;3.10;;
35126;SDS011;21300;52.006;5.798;2024-03-23T07:48:31;6.90;;;3.22;;
35126;SDS011;21300;52.006;5.798;2024-03-23T07:51:04;10.77;;;3.47;;
35126;SDS011;21300;52.006;5.798;2024-03-23T07:53:33;10.80;;;3.20;;
35126;SDS011;21300;52.006;5.798;2024-03-23T07:56:00;14.43;;;2.92;;
35126;SDS011;21300;52.006;5.798;2024-03-23T07:58:27;15.35;;;3.83;;
35126;SDS011;21300;52.006;5.798;2024-03-23T08:01:01;16.70;;;4.20;;
35126;SDS011;21300;52.006;5.798;2024-03-23T08:03:39;11.35;;;3.70;;
35126;SDS011;21300;52.006;5.798;2024-03-23T08:06:15;15.93;;;4.22;;
35126;SDS011;21300;52.006;5.798;2024-03-23T08:08:57;10.18;;;2.85;;
35126;SDS011;21300;52.006;5.798;2024-03-23T08:11:26;10.90;;;2.88;;
35126;SDS011;21300;52.006;5.798;2024-03-23T08:16:54;8.77;;;3.08;;
35126;SDS011;21300;52.006;5.798;2024-03-23T08:19:20;11.35;;;3.33;;
35126;SDS011;21300;52.006;5.798;2024-03-23T08:21:46;11.60;;;3.25;;
35126;SDS011;21300;52.006;5.798;2024-03-23T08:24:11;13.48;;;3.20;;
35126;SDS011;21300;52.006;5.798;2024-03-23T08:26:37;9.48;;;2.97;;
35126;SDS011;21300;52.006;5.798;2024-03-23T08:29:03;10.82;;;3.40;;
35126;SDS011;21300;52.006;5.798;2024-03-23T08:31:37;3.88;;;2.25;;
35126;SDS011;21300;52.006;5.798;2024-03-23T08:36:29;8.95;;;2.92;;
35126;SDS011;21300;52.006;5.798;2024-03-23T08:38:55;5.13;;;2.30;;
35126;SDS011;21300;52.006;5.798;2024-03-23T08:41:21;15.85;;;2.95;;
35126;SDS011;21300;52.006;5.798;2024-03-23T08:43:47;10.38;;;2.83;;
35126;SDS011;21300;52.006;5.798;2024-03-23T08:46:13;7.75;;;2.22;;
35126;SDS011;21300;52.006;5.798;2024-03-23T08:48:41;8.10;;;2.25;;
35126;SDS011;21300;52.006;5.798;2024-03-23T08:51:09;248.60;;;17.55;;
35126;SDS011;21300;52.006;5.798;2024-03-23T08:53:36;5.18;;;2.00;;
35126;SDS011;21300;52.006;5.798;2024-03-23T08:56:02;4.88;;;1.55;;
35126;SDS011;21300;52.006;5.798;2024-03-23T08:58:30;8.68;;;1.85;;
35126;SDS011;21300;52.006;5.798;2024-03-23T09:00:56;45.17;;;4.20;;
35126;SDS011;21300;52.006;5.798;2024-03-23T09:03:28;4.72;;;1.65;;
35126;SDS011;21300;52.006;5.798;2024-03-23T09:05:53;8.32;;;1.90;;
35126;SDS011;21300;52.006;5.798;2024-03-23T09:08:20;6.70;;;2.22;;
35126;SDS011;21300;52.006;5.798;2024-03-23T09:10:46;9.88;;;2.17;;
35126;SDS011;21300;52.006;5.798;2024-03-23T09:13:12;9.20;;;2.17;;
35126;SDS011;21300;52.006;5.798;2024-03-23T09:15:45;6.75;;;1.70;;
35126;SDS011;21300;52.006;5.798;2024-03-23T09:18:12;11.02;;;1.55;;
35126;SDS011;21300;52.006;5.798;2024-03-23T09:20:37;5.55;;;2.00;;
35126;SDS011;21300;52.006;5.798;2024-03-23T09:23:03;7.78;;;1.77;;
35126;SDS011;21300;52.006;5.798;2024-03-23T09:25:29;8.45;;;1.58;;
35126;SDS011;21300;52.006;5.798;2024-03-23T09:27:55;57.38;;;7.80;;
35126;SDS011;21300;52.006;5.798;2024-03-23T09:30:20;8.88;;;2.30;;
35126;SDS011;21300;52.006;5.798;2024-03-23T09:32:46;9.23;;;2.17;;
35126;SDS011;21300;52.006;5.798;2024-03-23T09:35:12;15.43;;;2.15;;
35126;SDS011;21300;52.006;5.798;2024-03-23T09:37:40;7.72;;;2.20;;
35126;SDS011;21300;52.006;5.798;2024-03-23T09:40:10;8.27;;;2.00;;
35126;SDS011;21300;52.006;5.798;2024-03-23T09:42:36;6.05;;;1.75;;
35126;SDS011;21300;52.006;5.798;2024-03-23T09:45:02;6.45;;;1.80;;
35126;SDS011;21300;52.006;5.798;2024-03-23T09:47:30;6.88;;;1.92;;
35126;SDS011;21300;52.006;5.798;2024-03-23T09:49:57;7.45;;;2.03;;
35126;SDS011;21300;52.006;5.798;2024-03-23T09:52:23;13.23;;;1.67;;
35126;SDS011;21300;52.006;5.798;2024-03-23T09:54:48;10.88;;;1.58;;
35126;SDS011;21300;52.006;5.798;2024-03-23T09:57:14;5.55;;;1.65;;
35126;SDS011;21300;52.006;5.798;2024-03-23T09:59:40;4.57;;;1.17;;
35126;SDS011;21300;52.006;5.798;2024-03-23T10:02:06;21.65;;;6.07;;
35126;SDS011;21300;52.006;5.798;2024-03-23T10:04:35;36.88;;;2.10;;
35126;SDS011;21300;52.006;5.798;2024-03-23T10:07:15;90.18;;;6.75;;
35126;SDS011;21300;52.006;5.798;2024-03-23T10:09:44;4.20;;;1.33;;
35126;SDS011;21300;52.006;5.798;2024-03-23T10:12:12;4.30;;;1.20;;
35126;SDS011;21300;52.006;5.798;2024-03-23T10:14:43;4.53;;;1.65;;
35126;SDS011;21300;52.006;5.798;2024-03-23T10:19:46;7.28;;;1.38;;
35126;SDS011;21300;52.006;5.798;2024-03-23T10:22:17;5.63;;;1.50;;
35126;SDS011;21300;52.006;5.798;2024-03-23T10:24:43;5.10;;;1.10;;
35126;SDS011;21300;52.006;5.798;2024-03-23T10:27:09;32.00;;;4.40;;
35126;SDS011;21300;52.006;5.798;2024-03-23T10:29:40;5.50;;;1.85;;
35126;SDS011;21300;52.006;5.798;2024-03-23T10:32:09;7.10;;;1.50;;
35126;SDS011;21300;52.006;5.798;2024-03-23T10:34:38;9.27;;;1.88;;
35126;SDS011;21300;52.006;5.798;2024-03-23T10:37:05;10.15;;;1.33;;
35126;SDS011;21300;52.006;5.798;2024-03-23T10:39:35;7.32;;;1.85;;
35126;SDS011;21300;52.006;5.798;2024-03-23T10:42:04;5.65;;;1.33;;
35126;SDS011;21300;52.006;5.798;2024-03-23T10:44:32;5.63;;;1.67;;
35126;SDS011;21300;52.006;5.798;2024-03-23T10:46:58;83.85;;;5.80;;
35126;SDS011;21300;52.006;5.798;2024-03-23T10:49:29;5.38;;;1.80;;
35126;SDS011;21300;52.006;5.798;2024-03-23T10:52:03;6.93;;;1.70;;
35126;SDS011;21300;52.006;5.798;2024-03-23T10:54:30;12.48;;;1.88;;
35126;SDS011;21300;52.006;5.798;2024-03-23T10:57:06;6.85;;;1.67;;
35126;SDS011;21300;52.006;5.798;2024-03-23T10:59:36;5.65;;;1.30;;
35126;SDS011;21300;52.006;5.798;2024-03-23T11:02:03;3.92;;;1.33;;
35126;SDS011;21300;52.006;5.798;2024-03-23T11:04:29;4.30;;;1.35;;
35126;SDS011;21300;52.006;5.798;2024-03-23T11:06:56;5.50;;;1.50;;
35126;SDS011;21300;52.006;5.798;2024-03-23T11:14:44;104.90;;;7.50;;
35126;SDS011;21300;52.006;5.798;2024-03-23T11:17:11;6.43;;;1.55;;
35126;SDS011;21300;52.006;5.798;2024-03-23T11:19:37;8.45;;;1.65;;
35126;SDS011;21300;52.006;5.798;2024-03-23T11:22:03;154.38;;;8.88;;
35126;SDS011;21300;52.006;5.798;2024-03-23T11:24:30;2.55;;;0.95;;
35126;SDS011;21300;52.006;5.798;2024-03-23T11:26:56;3.00;;;1.10;;
35126;SDS011;21300;52.006;5.798;2024-03-23T11:29:25;2.80;;;0.57;;
35126;SDS011;21300;52.006;5.798;2024-03-23T11:31:51;2.33;;;0.88;;
35126;SDS011;21300;52.006;5.798;2024-03-23T11:34:18;2.72;;;0.82;;
35126;SDS011;21300;52.006;5.798;2024-03-23T11:36:45;4.20;;;0.80;;
35126;SDS011;21300;52.006;5.798;2024-03-23T11:39:18;7.22;;;1.40;;
35126;SDS011;21300;52.006;5.798;2024-03-23T11:41:47;5.20;;;1.50;;
35126;SDS011;21300;52.006;5.798;2024-03-23T11:44:17;2.15;;;1.08;;
35126;SDS011;21300;52.006;5.798;2024-03-23T11:46:48;4.57;;;1.45;;
35126;SDS011;21300;52.006;5.798;2024-03-23T11:49:21;9.35;;;1.67;;
35126;SDS011;21300;52.006;5.798;2024-03-23T11:51:50;9.00;;;1.70;;
35126;SDS011;21300;52.006;5.798;2024-03-23T11:54:20;3.42;;;1.08;;
35126;SDS011;21300;52.006;5.798;2024-03-23T11:56:56;6.80;;;1.50;;
35126;SDS011;21300;52.006;5.798;2024-03-23T12:01:57;8.60;;;1.00;;
35126;SDS011;21300;52.006;5.798;2024-03-23T12:04:30;5.05;;;1.05;;
35126;SDS011;21300;52.006;5.798;2024-03-23T12:07:13;8.65;;;0.93;;
35126;SDS011;21300;52.006;5.798;2024-03-23T12:09:39;3.88;;;0.93;;
35126;SDS011;21300;52.006;5.798;2024-03-23T12:12:06;3.50;;;1.10;;
35126;SDS011;21300;52.006;5.798;2024-03-23T12:14:38;5.57;;;1.10;;
35126;SDS011;21300;52.006;5.798;2024-03-23T12:17:08;5.10;;;1.10;;
35126;SDS011;21300;52.006;5.798;2024-03-23T12:19:36;6.50;;;1.20;;
35126;SDS011;21300;52.006;5.798;2024-03-23T12:22:03;11.52;;;1.48;;
35126;SDS011;21300;52.006;5.798;2024-03-23T12:24:29;4.47;;;1.20;;
35126;SDS011;21300;52.006;5.798;2024-03-23T12:26:59;5.03;;;1.02;;
35126;SDS011;21300;52.006;5.798;2024-03-23T12:29:29;181.25;;;13.52;;
35126;SDS011;21300;52.006;5.798;2024-03-23T12:31:59;10.70;;;1.67;;
35126;SDS011;21300;52.006;5.798;2024-03-23T12:34:26;4.22;;;1.15;;
35126;SDS011;21300;52.006;5.798;2024-03-23T12:36:51;8.75;;;1.23;;
35126;SDS011;21300;52.006;5.798;2024-03-23T12:39:17;8.38;;;1.23;;
35126;SDS011;21300;52.006;5.798;2024-03-23T12:41:43;5.63;;;1.33;;
35126;SDS011;21300;52.006;5.798;2024-03-23T12:44:09;4.95;;;1.17;;
35126;SDS011;21300;52.006;5.798;2024-03-23T12:46:37;10.38;;;1.92;;
35126;SDS011;21300;52.006;5.798;2024-03-23T12:49:03;7.88;;;1.63;;
35126;SDS011;21300;52.006;5.798;2024-03-23T12:51:29;7.93;;;1.45;;
35126;SDS011;21300;52.006;5.798;2024-03-23T12:53:55;6.97;;;1.35;;
35126;SDS011;21300;52.006;5.798;2024-03-23T12:56:20;5.22;;;1.38;;
35126;SDS011;21300;52.006;5.798;2024-03-23T12:58:46;5.55;;;1.70;;
35126;SDS011;21300;52.006;5.798;2024-03-23T13:01:16;10.68;;;2.08;;
35126;SDS011;21300;52.006;5.798;2024-03-23T13:03:42;46.25;;;4.57;;
35126;SDS011;21300;52.006;5.798;2024-03-23T13:06:09;9.07;;;1.77;;
35126;SDS011;21300;52.006;5.798;2024-03-23T13:08:35;2.85;;;1.17;;
35126;SDS011;21300;52.006;5.798;2024-03-23T13:11:01;5.95;;;1.58;;
35126;SDS011;21300;52.006;5.798;2024-03-23T13:13:29;7.47;;;1.48;;
35126;SDS011;21300;52.006;5.798;2024-03-23T13:15:56;348.08;;;34.85;;
35126;SDS011;21300;52.006;5.798;2024-03-23T13:18:22;8.63;;;1.80;;
35126;SDS011;21300;52.006;5.798;2024-03-23T13:20:48;6.38;;;1.30;;
35126;SDS011;21300;52.006;5.798;2024-03-23T13:23:13;6.20;;;1.35;;
35126;SDS011;21300;52.006;5.798;2024-03-23T13:25:39;6.15;;;1.83;;
35126;SDS011;21300;52.006;5.798;2024-03-23T13:28:05;3.67;;;1.60;;
35126;SDS011;21300;52.006;5.798;2024-03-23T13:30:31;6.15;;;2.10;;
35126;SDS011;21300;52.006;5.798;2024-03-23T13:32:56;90.57;;;7.53;;
35126;SDS011;21300;52.006;5.798;2024-03-23T13:35:22;7.65;;;1.77;;
35126;SDS011;21300;52.006;5.798;2024-03-23T13:37:48;3.58;;;1.63;;
35126;SDS011;21300;52.006;5.798;2024-03-23T13:40:13;10.98;;;1.50;;
35126;SDS011;21300;52.006;5.798;2024-03-23T13:42:40;51.33;;;7.35;;
35126;SDS011;21300;52.006;5.798;2024-03-23T13:45:06;9.65;;;1.52;;
35126;SDS011;21300;52.006;5.798;2024-03-23T13:47:34;6.72;;;1.23;;
35126;SDS011;21300;52.006;5.798;2024-03-23T13:50:00;89.40;;;8.95;;
35126;SDS011;21300;52.006;5.798;2024-03-23T13:52:26;6.53;;;1.23;;
35126;SDS011;21300;52.006;5.798;2024-03-23T13:54:52;7.00;;;1.60;;
35126;SDS011;21300;52.006;5.798;2024-03-23T13:57:18;234.68;;;17.95;;
35126;SDS011;21300;52.006;5.798;2024-03-23T13:59:46;5.18;;;1.27;;
35126;SDS011;21300;52.006;5.798;2024-03-23T14:02:13;3.30;;;0.63;;
35126;SDS011;21300;52.006;5.798;2024-03-23T14:04:39;3.72;;;0.82;;
35126;SDS011;21300;52.006;5.798;2024-03-23T14:07:05;2.33;;;1.10;;
35126;SDS011;21300;52.006;5.798;2024-03-23T14:09:32;46.85;;;4.70;;
35126;SDS011;21300;52.006;5.798;2024-03-23T14:11:58;8.50;;;1.42;;
35126;SDS011;21300;52.006;5.798;2024-03-23T14:14:25;6.90;;;1.20;;
35126;SDS011;21300;52.006;5.798;2024-03-23T14:16:51;5.68;;;1.17;;
35126;SDS011;21300;52.006;5.798;2024-03-23T14:19:18;63.70;;;8.15;;
35126;SDS011;21300;52.006;5.798;2024-03-23T14:21:44;4.97;;;0.80;;
35126;SDS011;21300;52.006;5.798;2024-03-23T14:24:10;3.90;;;1.00;;
35126;SDS011;21300;52.006;5.798;2024-03-23T14:26:35;2.97;;;1.10;;
35126;SDS011;21300;52.006;5.798;2024-03-23T14:29:01;138.07;;;10.95;;
35126;SDS011;21300;52.006;5.798;2024-03-23T14:31:28;51.35;;;6.82;;
35126;SDS011;21300;52.006;5.798;2024-03-23T14:33:54;3.53;;;1.05;;
35126;SDS011;21300;52.006;5.798;2024-03-23T14:36:19;4.85;;;1.00;;
35126;SDS011;21300;52.006;5.798;2024-03-23T14:38:48;52.67;;;5.07;;
35126;SDS011;21300;52.006;5.798;2024-03-23T14:41:14;4.47;;;1.23;;
35126;SDS011;21300;52.006;5.798;2024-03-23T14:43:40;5.25;;;0.98;;
35126;SDS011;21300;52.006;5.798;2024-03-23T14:46:12;3.55;;;1.15;;
35126;SDS011;21300;52.006;5.798;2024-03-23T14:48:39;6.18;;;1.05;;
35126;SDS011;21300;52.006;5.798;2024-03-23T14:51:06;2.42;;;0.80;;
35126;SDS011;21300;52.006;5.798;2024-03-23T14:53:35;5.10;;;1.45;;
35126;SDS011;21300;52.006;5.798;2024-03-23T14:56:05;2.58;;;0.80;;
35126;SDS011;21300;52.006;5.798;2024-03-23T14:58:32;3.45;;;0.82;;
35126;SDS011;21300;52.006;5.798;2024-03-23T15:01:00;6.55;;;1.52;;
35126;SDS011;21300;52.006;5.798;2024-03-23T15:03:32;6.32;;;1.17;;
35126;SDS011;21300;52.006;5.798;2024-03-23T15:05:58;6.05;;;1.50;;
35126;SDS011;21300;52.006;5.798;2024-03-23T15:08:25;4.05;;;1.58;;
35126;SDS011;21300;52.006;5.798;2024-03-23T15:10:50;3.88;;;1.70;;
35126;SDS011;21300;52.006;5.798;2024-03-23T15:13:16;3.33;;;1.52;;
35126;SDS011;21300;52.006;5.798;2024-03-23T15:15:42;35.05;;;4.90;;
35126;SDS011;21300;52.006;5.798;2024-03-23T15:18:16;5.68;;;1.75;;
35126;SDS011;21300;52.006;5.798;2024-03-23T15:20:53;5.30;;;1.42;;
35126;SDS011;21300;52.006;5.798;2024-03-23T15:23:19;51.08;;;3.83;;
35126;SDS011;21300;52.006;5.798;2024-03-23T15:25:45;4.15;;;1.75;;
35126;SDS011;21300;52.006;5.798;2024-03-23T15:28:11;4.05;;;1.42;;
35126;SDS011;21300;52.006;5.798;2024-03-23T15:30:36;6.72;;;1.35;;
35126;SDS011;21300;52.006;5.798;2024-03-23T15:33:02;8.18;;;1.50;;
35126;SDS011;21300;52.006;5.798;2024-03-23T15:35:27;5.63;;;1.40;;
35126;SDS011;21300;52.006;5.798;2024-03-23T15:37:53;3.67;;;1.30;;
35126;SDS011;21300;52.006;5.798;2024-03-23T15:40:19;4.38;;;1.15;;
35126;SDS011;21300;52.006;5.798;2024-03-23T15:42:44;4.05;;;1.05;;
35126;SDS011;21300;52.006;5.798;2024-03-23T15:45:10;6.13;;;1.30;;